Time;durP1;ratioP1;P1;durP2;ratioP2;P2;SDS_P1;SDS_P2;PMS_P1;PMS_P2;Temp;Humidity;BMP_temperature;BMP_pressure;BME280_temperature;BME280_humidity;BME280_pressure;Samples;Min_cycle;Max_cycle;Signal;HPM_P1;HPM_P2
2021/10/17 00:00:16;;;;;;;;;;;27.40;42.90;;;;;;5093732;28;19919;-78
2021/10/17 00:02:45;;;;;;;;;;;27.40;42.90;;;;;;5127328;27;19908;-77
2021/10/17 00:05:11;;;;;;;;;;;27.40;42.90;;;;;;5127115;27;19916;-78
2021/10/17 00:07:36;;;;;;;;;;;27.40;42.90;;;;;;5093790;28;19982;-77
2021/10/17 00:10:04;;;;;;;;;;;27.40;43.00;;;;;;5110776;28;20295;-77
2021/10/17 00:12:31;;;;;;;;;;;27.40;42.90;;;;;;5093802;28;19951;-80
2021/10/17 00:14:59;;;;;;;;;;;27.40;43.00;;;;;;5094772;28;20233;-80
2021/10/17 00:17:25;;;;;;;;;;;27.40;42.90;;;;;;5093908;28;19919;-77
2021/10/17 00:19:52;;;;;;;;;;;27.40;43.00;;;;;;5093923;28;20006;-77
2021/10/17 00:22:21;;;;;;;;;;;27.40;43.00;;;;;;5093844;28;19973;-77
2021/10/17 00:24:46;;;;;;;;;;;27.40;43.00;;;;;;5093677;28;19916;-79
2021/10/17 00:27:14;;;;;;;;;;;27.40;43.10;;;;;;5093559;28;19912;-79
2021/10/17 00:29:42;;;;;;;;;;;27.40;43.10;;;;;;5076995;28;19908;-77
2021/10/17 00:32:10;;;;;;;;;;;27.40;43.10;;;;;;5093590;28;19908;-79
2021/10/17 00:34:36;;;;;;;;;;;27.40;43.10;;;;;;5093492;28;19974;-78
2021/10/17 00:37:01;;;;;;;;;;;27.40;43.10;;;;;;5076638;28;19978;-78
2021/10/17 00:39:29;;;;;;;;;;;27.40;43.10;;;;;;5077025;28;19920;-79
2021/10/17 00:41:55;;;;;;;;;;;27.40;43.10;;;;;;5094267;28;19935;-78
2021/10/17 00:44:25;;;;;;;;;;;27.40;43.10;;;;;;5093498;28;20325;-78
2021/10/17 00:46:50;;;;;;;;;;;27.40;43.10;;;;;;5093944;28;19912;-79
2021/10/17 00:49:16;;;;;;;;;;;27.40;43.20;;;;;;5077274;28;20387;-77
2021/10/17 00:51:42;;;;;;;;;;;27.40;43.10;;;;;;5076698;28;19908;-78
2021/10/17 00:54:11;;;;;;;;;;;27.40;43.10;;;;;;5097777;28;19908;-78
2021/10/17 00:56:39;;;;;;;;;;;27.40;43.10;;;;;;5081379;28;20297;-77
2021/10/17 00:59:04;;;;;;;;;;;27.40;43.10;;;;;;5098343;28;19912;-77
2021/10/17 01:01:32;;;;;;;;;;;27.40;43.10;;;;;;5097429;28;19923;-79
2021/10/17 01:04:01;;;;;;;;;;;27.40;43.10;;;;;;5130942;27;19908;-77
2021/10/17 01:06:27;;;;;;;;;;;27.40;43.10;;;;;;5114377;28;19916;-75
2021/10/17 01:08:52;;;;;;;;;;;27.40;43.10;;;;;;5131556;27;19927;-78
2021/10/17 01:11:20;;;;;;;;;;;27.40;43.10;;;;;;5114554;28;19919;-78
2021/10/17 01:13:48;;;;;;;;;;;27.40;43.10;;;;;;5130956;27;19908;-77
2021/10/17 01:16:16;;;;;;;;;;;27.40;43.10;;;;;;5103912;28;20290;-74
2021/10/17 01:18:44;;;;;;;;;;;27.40;43.10;;;;;;5104025;28;20007;-80
2021/10/17 01:21:09;;;;;;;;;;;27.40;43.20;;;;;;5097308;28;20489;-77
2021/10/17 01:23:35;;;;;;;;;;;27.40;43.20;;;;;;5097993;28;19908;-78
2021/10/17 01:26:00;;;;;;;;;;;27.40;43.20;;;;;;5080514;28;19908;-79
2021/10/17 01:28:31;;;;;;;;;;;27.40;43.10;;;;;;5097091;28;19912;-79
2021/10/17 01:30:56;;;;;;;;;;;27.40;43.10;;;;;;5097045;28;19912;-78
2021/10/17 01:33:24;;;;;;;;;;;27.40;43.10;;;;;;5096960;28;19908;-80
2021/10/17 01:35:50;;;;;;;;;;;27.40;43.20;;;;;;5097551;28;20015;-78
2021/10/17 01:38:15;;;;;;;;;;;27.40;43.10;;;;;;5096887;28;19954;-79
2021/10/17 01:40:41;;;;;;;;;;;27.40;43.10;;;;;;5097691;28;20029;-78
2021/10/17 01:43:06;;;;;;;;;;;27.40;43.10;;;;;;5096582;28;19912;-78
2021/10/17 01:45:32;;;;;;;;;;;27.40;43.20;;;;;;5097515;28;19908;-81
2021/10/17 01:47:58;;;;;;;;;;;27.40;43.20;;;;;;5096495;28;19909;-79
2021/10/17 01:50:26;;;;;;;;;;;27.40;43.20;;;;;;5096642;28;19999;-81
2021/10/17 01:52:51;;;;;;;;;;;27.40;43.20;;;;;;5096625;28;19957;-77
2021/10/17 01:55:19;;;;;;;;;;;27.40;43.20;;;;;;5096488;28;19912;-80
2021/10/17 01:57:47;;;;;;;;;;;27.40;43.20;;;;;;5096342;28;20018;-77
2021/10/17 02:00:13;;;;;;;;;;;27.40;43.20;;;;;;5096136;28;19981;-77
2021/10/17 02:02:41;;;;;;;;;;;27.40;43.30;;;;;;5097175;28;20365;-79
2021/10/17 02:05:06;;;;;;;;;;;27.40;43.30;;;;;;5096787;28;19912;-77
2021/10/17 02:07:34;;;;;;;;;;;27.40;43.30;;;;;;5097142;28;19908;-77
2021/10/17 02:10:00;;;;;;;;;;;27.30;43.30;;;;;;5097039;28;19908;-77
2021/10/17 02:12:28;;;;;;;;;;;27.30;43.30;;;;;;5096968;28;19908;-79
2021/10/17 02:14:54;;;;;;;;;;;27.40;43.30;;;;;;5096333;28;19931;-78
2021/10/17 02:17:19;;;;;;;;;;;27.40;43.30;;;;;;5096081;28;20325;-77
2021/10/17 02:19:49;;;;;;;;;;;27.40;43.30;;;;;;5079136;28;19957;-77
2021/10/17 02:22:15;;;;;;;;;;;27.40;43.30;;;;;;5096221;28;20225;-78
2021/10/17 02:24:41;;;;;;;;;;;27.40;43.30;;;;;;5096920;28;19908;-78
2021/10/17 02:27:06;;;;;;;;;;;27.40;43.30;;;;;;5096973;28;19922;-77
2021/10/17 02:29:32;;;;;;;;;;;27.40;43.40;;;;;;5096845;28;19919;-78
2021/10/17 02:31:59;;;;;;;;;;;27.30;43.30;;;;;;5078728;28;19909;-80
2021/10/17 02:34:25;;;;;;;;;;;27.40;43.30;;;;;;5096557;28;19961;-81
2021/10/17 02:36:53;;;;;;;;;;;27.30;43.20;;;;;;5078723;28;19931;-78
2021/10/17 02:39:21;;;;;;;;;;;27.40;43.30;;;;;;5079051;28;19996;-78
2021/10/17 02:41:46;;;;;;;;;;;27.30;43.30;;;;;;5096393;28;19916;-78
2021/10/17 02:44:12;;;;;;;;;;;27.30;43.30;;;;;;5095623;28;19919;-79
2021/10/17 02:46:40;;;;;;;;;;;27.30;43.40;;;;;;5078751;28;19908;-77
2021/10/17 02:49:08;;;;;;;;;;;27.30;43.40;;;;;;5095418;28;20007;-78
2021/10/17 02:51:33;;;;;;;;;;;27.30;43.40;;;;;;5096253;28;19908;-80
2021/10/17 02:53:59;;;;;;;;;;;27.30;43.40;;;;;;5096228;28;19919;-78
2021/10/17 02:56:24;;;;;;;;;;;27.30;43.40;;;;;;5096089;28;19908;-78
2021/10/17 02:58:50;;;;;;;;;;;27.30;43.40;;;;;;5078276;28;19974;-75
2021/10/17 03:01:15;;;;;;;;;;;27.30;43.40;;;;;;5129487;27;19912;-81
2021/10/17 03:03:41;;;;;;;;;;;27.30;43.30;;;;;;5129685;27;19912;-77
2021/10/17 03:06:09;;;;;;;;;;;27.30;43.40;;;;;;5112123;28;19913;-78
2021/10/17 03:08:38;;;;;;;;;;;27.30;43.40;;;;;;5128504;27;19908;-78
2021/10/17 03:11:06;;;;;;;;;;;27.30;43.40;;;;;;5094979;28;19908;-76
2021/10/17 03:13:34;;;;;;;;;;;27.30;43.40;;;;;;5129351;27;19908;-79
2021/10/17 03:16:01;;;;;;;;;;;27.30;43.40;;;;;;5095126;28;20352;-76
2021/10/17 03:18:27;;;;;;;;;;;27.30;43.40;;;;;;5095664;28;19912;-78
2021/10/17 03:20:52;;;;;;;;;;;27.30;43.40;;;;;;5094977;28;20264;-79
2021/10/17 03:23:20;;;;;;;;;;;27.30;43.40;;;;;;5094989;28;19908;-79
2021/10/17 03:25:46;;;;;;;;;;;27.30;43.40;;;;;;5094957;28;20367;-77
2021/10/17 03:28:17;;;;;;;;;;;27.30;43.40;;;;;;5096015;28;19940;-79
2021/10/17 03:30:42;;;;;;;;;;;27.30;43.50;;;;;;5095857;28;19909;-79
2021/10/17 03:33:08;;;;;;;;;;;27.30;43.50;;;;;;5094467;28;20327;-79
2021/10/17 03:35:33;;;;;;;;;;;27.30;43.50;;;;;;5094625;28;19916;-79
2021/10/17 03:37:59;;;;;;;;;;;27.30;43.40;;;;;;5097311;28;19973;-78
2021/10/17 03:40:27;;;;;;;;;;;27.30;43.40;;;;;;5094688;28;19915;-78
2021/10/17 03:42:52;;;;;;;;;;;27.30;43.50;;;;;;5095378;28;20376;-77
2021/10/17 03:45:20;;;;;;;;;;;27.30;43.40;;;;;;5077794;28;19962;-80
2021/10/17 03:47:45;;;;;;;;;;;27.30;44.00;;;;;;5094374;28;19908;-79
2021/10/17 03:50:11;;;;;;;;;;;27.40;43.50;;;;;;5094494;28;19923;-78
2021/10/17 03:52:36;;;;;;;;;;;27.30;43.40;;;;;;5094411;28;20045;-77
2021/10/17 03:55:05;;;;;;;;;;;27.30;43.50;;;;;;5094964;28;19908;-77
2021/10/17 03:57:32;;;;;;;;;;;27.30;43.50;;;;;;5095095;28;19909;-77
2021/10/17 03:59:58;;;;;;;;;;;27.30;43.50;;;;;;5094186;28;19912;-80
2021/10/17 04:02:26;;;;;;;;;;;27.30;43.50;;;;;;5094921;28;19918;-78
2021/10/17 04:04:54;;;;;;;;;;;27.30;43.60;;;;;;5111092;28;20007;-77
2021/10/17 04:07:24;;;;;;;;;;;27.30;43.70;;;;;;5093938;28;20257;-77
2021/10/17 04:09:49;;;;;;;;;;;27.30;43.60;;;;;;5127532;27;19912;-80
2021/10/17 04:12:16;;;;;;;;;;;27.30;43.60;;;;;;5094907;28;19969;-79
2021/10/17 04:14:43;;;;;;;;;;;27.30;43.60;;;;;;5095056;28;19918;-78
2021/10/17 04:17:09;;;;;;;;;;;27.30;43.60;;;;;;5093810;28;20373;-79
2021/10/17 04:19:39;;;;;;;;;;;27.30;43.50;;;;;;5093824;28;19967;-77
2021/10/17 04:22:05;;;;;;;;;;;27.30;43.50;;;;;;5094686;28;19916;-77
2021/10/17 04:24:35;;;;;;;;;;;27.30;43.40;;;;;;5094056;28;20011;-78
2021/10/17 04:27:02;;;;;;;;;;;27.30;43.50;;;;;;5094015;28;20317;-77
2021/10/17 04:29:27;;;;;;;;;;;27.40;43.50;;;;;;5077364;28;19969;-78
2021/10/17 04:31:55;;;;;;;;;;;27.30;43.60;;;;;;5076871;28;20261;-79
2021/10/17 04:34:21;;;;;;;;;;;27.30;43.50;;;;;;5077269;28;20325;-78
2021/10/17 04:36:48;;;;;;;;;;;27.30;43.50;;;;;;5094603;28;19931;-84
2021/10/17 04:39:14;;;;;;;;;;;27.30;43.50;;;;;;5076899;28;20344;-83
2021/10/17 04:41:39;;;;;;;;;;;27.30;43.50;;;;;;5077029;28;19958;-77
2021/10/17 04:44:05;;;;;;;;;;;27.30;43.50;;;;;;5094120;28;20345;-78
2021/10/17 04:46:31;;;;;;;;;;;27.30;43.50;;;;;;5093755;28;19948;-78
2021/10/17 04:48:56;;;;;;;;;;;27.30;43.50;;;;;;5076800;28;19912;-78
2021/10/17 04:51:24;;;;;;;;;;;27.30;43.50;;;;;;5098036;28;19908;-78
2021/10/17 04:53:49;;;;;;;;;;;27.30;43.50;;;;;;5103383;28;19918;-78
2021/10/17 04:56:17;;;;;;;;;;;27.30;43.40;;;;;;5095740;28;19912;-78
2021/10/17 04:58:43;;;;;;;;;;;27.30;43.50;;;;;;5093969;28;19908;-80
2021/10/17 05:01:09;;;;;;;;;;;27.30;43.40;;;;;;5093811;28;19941;-79
2021/10/17 05:03:34;;;;;;;;;;;27.30;43.40;;;;;;5094669;28;19966;-82
2021/10/17 05:06:00;;;;;;;;;;;27.30;43.40;;;;;;5093703;28;20261;-77
2021/10/17 05:08:25;;;;;;;;;;;27.30;43.40;;;;;;5094270;28;19908;-79
2021/10/17 05:10:53;;;;;;;;;;;27.30;43.40;;;;;;5093935;28;19908;-80
2021/10/17 05:13:21;;;;;;;;;;;27.30;43.40;;;;;;5093615;28;20284;-79
2021/10/17 05:15:47;;;;;;;;;;;27.30;43.40;;;;;;5076966;28;20321;-78
2021/10/17 05:18:12;;;;;;;;;;;27.30;43.40;;;;;;5076786;28;19954;-80
2021/10/17 05:20:40;;;;;;;;;;;27.30;43.40;;;;;;5076591;28;19965;-79
2021/10/17 05:23:11;;;;;;;;;;;27.30;43.40;;;;;;5076526;28;19914;-77
2021/10/17 05:25:41;;;;;;;;;;;27.30;43.40;;;;;;5094352;28;19912;-78
2021/10/17 05:28:12;;;;;;;;;;;27.30;43.40;;;;;;5093326;28;19931;-80
2021/10/17 05:30:37;;;;;;;;;;;27.30;43.40;;;;;;5093496;28;19973;-80
2021/10/17 05:33:03;;;;;;;;;;;27.30;43.40;;;;;;5093295;28;20325;-79
2021/10/17 05:35:28;;;;;;;;;;;27.30;43.40;;;;;;5093037;28;19962;-79
2021/10/17 05:37:59;;;;;;;;;;;27.30;43.40;;;;;;5093854;28;19912;-81
2021/10/17 05:40:24;;;;;;;;;;;27.30;43.40;;;;;;5079971;28;20363;-78
2021/10/17 05:42:52;;;;;;;;;;;27.30;43.40;;;;;;5096837;28;19943;-80
2021/10/17 05:45:18;;;;;;;;;;;27.30;43.40;;;;;;5096721;28;19908;-76
2021/10/17 05:47:45;;;;;;;;;;;27.30;43.40;;;;;;5097615;28;19919;-78
2021/10/17 05:50:13;;;;;;;;;;;27.30;43.50;;;;;;5079999;28;20233;-78
2021/10/17 05:52:41;;;;;;;;;;;27.30;43.50;;;;;;5096754;28;20261;-77
2021/10/17 05:55:07;;;;;;;;;;;27.30;43.50;;;;;;5096822;28;19920;-79
2021/10/17 05:57:36;;;;;;;;;;;27.30;43.40;;;;;;5079793;28;20003;-78
2021/10/17 06:00:03;;;;;;;;;;;27.40;43.50;;;;;;5096135;28;19911;-80
2021/10/17 06:02:31;;;;;;;;;;;27.40;43.50;;;;;;5096138;28;19961;-79
2021/10/17 06:04:59;;;;;;;;;;;27.30;43.50;;;;;;5096055;28;20042;-81
2021/10/17 06:07:27;;;;;;;;;;;27.40;43.50;;;;;;5095754;28;20025;-78
2021/10/17 06:09:53;;;;;;;;;;;27.40;43.50;;;;;;5096724;28;20202;-76
2021/10/17 06:12:18;;;;;;;;;;;27.40;43.50;;;;;;5095525;28;20455;-75
2021/10/17 06:14:44;;;;;;;;;;;27.40;43.50;;;;;;5095629;28;19995;-77
2021/10/17 06:17:12;;;;;;;;;;;27.40;43.50;;;;;;5078375;28;19955;-79
2021/10/17 06:19:37;;;;;;;;;;;27.40;43.50;;;;;;5095450;28;19912;-81
2021/10/17 06:22:06;;;;;;;;;;;27.30;43.40;;;;;;5095358;28;19922;-79
2021/10/17 06:24:32;;;;;;;;;;;27.30;43.50;;;;;;5095359;28;19922;-82
2021/10/17 06:27:02;;;;;;;;;;;27.30;43.50;;;;;;5095411;28;20306;-82
2021/10/17 06:29:28;;;;;;;;;;;27.30;43.50;;;;;;5095451;28;19937;-78
2021/10/17 06:31:56;;;;;;;;;;;27.30;43.40;;;;;;5078896;28;19911;-78
2021/10/17 06:34:26;;;;;;;;;;;27.40;43.50;;;;;;5096153;28;19909;-79
2021/10/17 06:36:52;;;;;;;;;;;27.30;43.40;;;;;;5095949;28;19920;-79
2021/10/17 06:39:19;;;;;;;;;;;27.30;43.40;;;;;;5096032;28;19968;-78
2021/10/17 06:41:50;;;;;;;;;;;27.30;43.40;;;;;;5095865;28;19922;-78
2021/10/17 06:44:16;;;;;;;;;;;27.30;43.40;;;;;;5096095;28;19908;-77
2021/10/17 06:46:41;;;;;;;;;;;27.30;43.40;;;;;;5094989;28;20375;-77
2021/10/17 06:49:09;;;;;;;;;;;27.30;43.40;;;;;;5077984;28;19923;-79
2021/10/17 06:51:37;;;;;;;;;;;27.30;43.40;;;;;;5093894;28;19908;-78
2021/10/17 06:54:08;;;;;;;;;;;27.30;43.40;;;;;;5094879;28;19908;-79
2021/10/17 06:56:33;;;;;;;;;;;27.30;43.40;;;;;;5094608;28;19931;-79
2021/10/17 06:59:04;;;;;;;;;;;27.30;43.40;;;;;;5078107;28;20340;-83
2021/10/17 07:01:30;;;;;;;;;;;27.20;39.10;;;;;;5095662;28;19962;-84
2021/10/17 07:03:58;;;;;;;;;;;26.40;36.80;;;;;;5078400;28;19912;-82
2021/10/17 07:06:23;;;;;;;;;;;25.60;36.50;;;;;;5095020;28;19919;-82
2021/10/17 07:08:49;;;;;;;;;;;24.90;36.80;;;;;;5078214;28;19908;-82
2021/10/17 07:11:14;;;;;;;;;;;24.20;37.60;;;;;;5078162;28;20269;-77
2021/10/17 07:13:40;;;;;;;;;;;23.90;38.60;;;;;;5095315;28;19919;-77
2021/10/17 07:16:08;;;;;;;;;;;24.10;39.30;;;;;;5077608;28;19908;-80
2021/10/17 07:18:33;;;;;;;;;;;24.50;39.50;;;;;;5078213;28;19912;-77
2021/10/17 07:20:59;;;;;;;;;;;25.00;39.50;;;;;;5077605;28;19934;-76
2021/10/17 07:23:27;;;;;;;;;;;25.40;39.30;;;;;;5095463;28;19908;-79
2021/10/17 07:25:55;;;;;;;;;;;25.70;38.90;;;;;;5077713;28;19943;-78
2021/10/17 07:28:24;;;;;;;;;;;25.90;39.00;;;;;;5095167;28;19998;-79
2021/10/17 07:30:50;;;;;;;;;;;26.20;38.90;;;;;;5080026;28;20336;-81
2021/10/17 07:33:43;;;;;;;;;;;26.30;38.80;;;;;;5078703;28;19908;-80
2021/10/17 07:36:22;;;;;;;;;;;26.40;38.60;;;;;;5093140;28;19970;-81
2021/10/17 07:38:47;;;;;;;;;;;26.50;38.70;;;;;;5095305;28;19920;-79
2021/10/17 07:41:13;;;;;;;;;;;26.60;38.70;;;;;;5128235;27;19919;-79
2021/10/17 07:43:39;;;;;;;;;;;26.70;38.70;;;;;;5093659;28;19919;-80
2021/10/17 07:46:04;;;;;;;;;;;26.70;38.80;;;;;;5093655;28;19908;-80
2021/10/17 07:48:31;;;;;;;;;;;26.80;38.90;;;;;;5128405;27;19980;-79
2021/10/17 07:50:57;;;;;;;;;;;26.90;39.00;;;;;;5112012;28;19999;-82
2021/10/17 07:53:25;;;;;;;;;;;26.90;39.00;;;;;;5128009;27;19943;-79
2021/10/17 07:55:52;;;;;;;;;;;26.90;39.10;;;;;;5128214;27;19912;-81
2021/10/17 07:58:18;;;;;;;;;;;26.90;39.10;;;;;;5127361;27;19908;-80
2021/10/17 08:00:43;;;;;;;;;;;27.00;39.30;;;;;;5075671;28;20299;-79
2021/10/17 08:03:09;;;;;;;;;;;26.90;39.20;;;;;;5072840;28;19908;-80
2021/10/17 08:05:35;;;;;;;;;;;27.00;39.40;;;;;;5073671;28;20366;-81
2021/10/17 08:08:00;;;;;;;;;;;27.00;39.40;;;;;;5073713;28;20166;-80
2021/10/17 08:10:26;;;;;;;;;;;27.00;39.50;;;;;;5074517;28;19913;-79
2021/10/17 08:12:51;;;;;;;;;;;27.00;39.50;;;;;;5090351;28;19912;-80
2021/10/17 08:15:17;;;;;;;;;;;27.00;39.60;;;;;;5090202;28;20215;-79
2021/10/17 08:17:42;;;;;;;;;;;27.00;39.60;;;;;;5090793;28;20006;-83
2021/10/17 08:20:10;;;;;;;;;;;27.00;39.60;;;;;;5108345;28;19994;-80
2021/10/17 08:22:36;;;;;;;;;;;27.10;39.70;;;;;;5074436;28;19912;-80
2021/10/17 08:25:06;;;;;;;;;;;27.10;39.80;;;;;;5107745;28;20004;-79
2021/10/17 08:27:32;;;;;;;;;;;27.10;39.90;;;;;;5074924;28;19912;-78
2021/10/17 08:29:58;;;;;;;;;;;27.10;39.90;;;;;;5107880;28;19916;-78
2021/10/17 08:32:23;;;;;;;;;;;27.10;39.90;;;;;;5107482;28;20044;-78
2021/10/17 08:34:49;;;;;;;;;;;27.10;40.10;;;;;;5107667;28;19908;-82
2021/10/17 08:37:14;;;;;;;;;;;27.20;40.10;;;;;;5107453;28;19963;-80
2021/10/17 08:39:42;;;;;;;;;;;27.20;40.00;;;;;;5107437;28;20016;-80
2021/10/17 08:42:10;;;;;;;;;;;27.20;40.20;;;;;;5090615;28;19947;-84
2021/10/17 08:44:36;;;;;;;;;;;27.20;40.20;;;;;;5106934;28;19909;-80
2021/10/17 08:47:04;;;;;;;;;;;27.20;40.20;;;;;;5090428;28;19919;-81
2021/10/17 08:49:29;;;;;;;;;;;27.20;40.20;;;;;;5107736;28;19971;-82
2021/10/17 08:51:55;;;;;;;;;;;27.30;40.30;;;;;;5090547;28;20360;-80
2021/10/17 08:54:20;;;;;;;;;;;27.30;40.30;;;;;;5073342;28;20329;-82
2021/10/17 08:56:48;;;;;;;;;;;27.30;40.30;;;;;;5073594;28;19920;-82
2021/10/17 08:59:13;;;;;;;;;;;27.40;40.30;;;;;;5106825;28;19920;-82
2021/10/17 09:01:42;;;;;;;;;;;27.50;40.30;;;;;;5107249;28;19912;-83
2021/10/17 09:04:10;;;;;;;;;;;27.50;40.20;;;;;;5106511;28;20003;-83
2021/10/17 09:06:38;;;;;;;;;;;27.60;40.20;;;;;;5089865;28;19913;-84
2021/10/17 09:09:10;;;;;;;;;;;27.60;40.20;;;;;;5089897;28;19912;-81
2021/10/17 09:11:52;;;;;;;;;;;27.70;40.30;;;;;;5107129;28;19948;-82
2021/10/17 09:14:18;;;;;;;;;;;27.80;40.30;;;;;;5109068;28;19962;-81
2021/10/17 09:16:45;;;;;;;;;;;27.80;40.30;;;;;;5094391;28;19908;-81
2021/10/17 09:19:10;;;;;;;;;;;27.80;40.30;;;;;;5094293;28;20319;-79
2021/10/17 09:21:36;;;;;;;;;;;27.90;40.40;;;;;;5077959;28;20366;-83
2021/10/17 09:24:02;;;;;;;;;;;27.90;40.40;;;;;;5111037;28;19992;-83
2021/10/17 09:26:27;;;;;;;;;;;27.90;40.40;;;;;;5110895;28;19924;-82
2021/10/17 09:28:55;;;;;;;;;;;27.90;40.50;;;;;;5094070;28;20255;-81
2021/10/17 09:31:23;;;;;;;;;;;27.80;40.40;;;;;;5110392;28;19915;-76
2021/10/17 09:33:49;;;;;;;;;;;26.80;37.30;;;;;;5077799;28;20435;-76
2021/10/17 09:36:15;;;;;;;;;;;25.90;37.30;;;;;;5093405;28;19960;-78
2021/10/17 09:38:42;;;;;;;;;;;25.10;38.40;;;;;;5110912;28;20348;-82
2021/10/17 09:41:21;;;;;;;;;;;25.10;39.40;;;;;;5102764;28;20367;-79
2021/10/17 09:43:54;;;;;;;;;;;25.40;39.70;;;;;;5097906;28;19922;-80
2021/10/17 09:46:19;;;;;;;;;;;25.80;39.70;;;;;;5114140;28;20383;-80
2021/10/17 09:48:47;;;;;;;;;;;26.20;39.30;;;;;;5137554;27;19962;-77
2021/10/17 09:51:16;;;;;;;;;;;26.50;39.20;;;;;;5123346;28;19973;-80
2021/10/17 09:53:42;;;;;;;;;;;26.70;39.20;;;;;;5123440;28;19916;-81
2021/10/17 09:56:08;;;;;;;;;;;26.90;39.00;;;;;;5099570;28;20053;-81
2021/10/17 09:58:33;;;;;;;;;;;27.00;39.00;;;;;;5131175;27;19973;-83
2021/10/17 10:00:59;;;;;;;;;;;27.20;39.00;;;;;;5113567;28;20350;-78
2021/10/17 10:03:30;;;;;;;;;;;27.30;38.90;;;;;;5113654;28;19918;-82
2021/10/17 10:05:56;;;;;;;;;;;27.30;38.90;;;;;;5114177;28;19909;-79
2021/10/17 10:08:21;;;;;;;;;;;27.40;39.40;;;;;;5114544;28;19934;-78
2021/10/17 10:10:50;;;;;;;;;;;27.40;39.20;;;;;;5116238;28;19983;-79
2021/10/17 10:13:19;;;;;;;;;;;27.40;39.40;;;;;;5115458;28;19912;-84
2021/10/17 10:15:44;;;;;;;;;;;27.40;39.50;;;;;;5115691;28;20003;-80
2021/10/17 10:18:10;;;;;;;;;;;27.50;40.20;;;;;;5114823;28;20327;-78
2021/10/17 10:20:38;;;;;;;;;;;27.50;40.10;;;;;;5131319;27;19978;-80
2021/10/17 10:23:06;;;;;;;;;;;27.60;42.60;;;;;;5113206;28;20016;-79
2021/10/17 10:25:31;;;;;;;;;;;27.60;42.20;;;;;;5112959;28;20241;-78
2021/10/17 10:27:57;;;;;;;;;;;27.60;41.30;;;;;;5130356;27;19938;-80
2021/10/17 10:30:32;;;;;;;;;;;27.60;42.60;;;;;;5130656;27;20097;-82
2021/10/17 10:33:18;;;;;;;;;;;27.60;42.50;;;;;;5113044;28;20420;-82
2021/10/17 10:36:05;;;;;;;;;;;27.70;42.40;;;;;;5097851;28;19924;-80
2021/10/17 10:38:50;;;;;;;;;;;27.70;42.50;;;;;;5131229;27;19954;-78
2021/10/17 10:41:21;;;;;;;;;;;27.60;42.60;;;;;;5097554;28;19947;-80
2021/10/17 10:43:49;;;;;;;;;;;27.60;42.80;;;;;;5113009;28;20350;-84
2021/10/17 10:46:28;;;;;;;;;;;27.70;42.80;;;;;;5098891;28;19965;-86
2021/10/17 10:48:56;;;;;;;;;;;27.60;43.80;;;;;;5135150;27;19951;-84
2021/10/17 10:51:43;;;;;;;;;;;27.60;43.40;;;;;;5118689;28;20004;-82
2021/10/17 10:54:27;;;;;;;;;;;27.70;43.30;;;;;;5101635;28;19908;-85
2021/10/17 10:56:56;;;;;;;;;;;27.60;43.40;;;;;;5096950;28;19912;-84
2021/10/17 10:59:24;;;;;;;;;;;27.60;43.60;;;;;;5115310;28;19919;-81
2021/10/17 11:01:50;;;;;;;;;;;27.70;43.70;;;;;;5133024;27;19912;-84
2021/10/17 11:04:34;;;;;;;;;;;27.70;43.60;;;;;;5099446;28;19919;-83
2021/10/17 11:07:18;;;;;;;;;;;27.70;43.60;;;;;;5099816;28;19909;-79
2021/10/17 11:09:43;;;;;;;;;;;27.70;43.50;;;;;;5099312;28;20366;-80
2021/10/17 11:12:09;;;;;;;;;;;27.70;43.60;;;;;;5115013;28;19912;-81
2021/10/17 11:14:34;;;;;;;;;;;27.70;43.80;;;;;;5097237;28;19990;-79
2021/10/17 11:17:05;;;;;;;;;;;27.70;43.40;;;;;;5080994;28;20018;-81
2021/10/17 11:19:30;;;;;;;;;;;27.70;43.60;;;;;;5081682;28;19968;-83
2021/10/17 11:22:00;;;;;;;;;;;27.70;43.50;;;;;;5098081;28;20049;-83
2021/10/17 11:24:26;;;;;;;;;;;27.70;43.80;;;;;;5081071;28;19919;-77
2021/10/17 11:27:11;;;;;;;;;;;27.70;43.60;;;;;;5097429;28;19908;-79
2021/10/17 11:29:46;;;;;;;;;;;27.70;43.80;;;;;;5096865;28;20529;-78
2021/10/17 11:32:17;;;;;;;;;;;27.70;43.90;;;;;;5080180;28;20015;-82
2021/10/17 11:34:44;;;;;;;;;;;27.70;44.10;;;;;;5098662;28;20005;-79
2021/10/17 11:37:21;;;;;;;;;;;27.70;44.00;;;;;;5080288;28;19928;-79
2021/10/17 11:39:57;;;;;;;;;;;27.70;43.70;;;;;;5080966;28;19908;-84
2021/10/17 11:42:25;;;;;;;;;;;27.70;43.90;;;;;;5095720;28;19916;-80
2021/10/17 11:44:55;;;;;;;;;;;27.70;43.80;;;;;;5077716;28;20003;-74
2021/10/17 11:47:21;;;;;;;;;;;27.70;43.70;;;;;;5094625;28;19912;-76
2021/10/17 11:49:49;;;;;;;;;;;27.70;43.90;;;;;;5095315;28;19909;-79
2021/10/17 11:52:17;;;;;;;;;;;27.70;43.90;;;;;;5095369;28;20299;-82
2021/10/17 11:54:49;;;;;;;;;;;27.80;44.10;;;;;;5078372;28;19916;-81
2021/10/17 11:57:30;;;;;;;;;;;27.60;38.90;;;;;;5077735;28;19919;-80
2021/10/17 11:59:57;;;;;;;;;;;26.40;37.40;;;;;;5095094;28;19938;-78
2021/10/17 12:02:43;;;;;;;;;;;25.20;39.00;;;;;;5094631;28;19980;-79
2021/10/17 12:05:18;;;;;;;;;;;24.60;40.10;;;;;;5095392;28;19976;-78
2021/10/17 12:07:44;;;;;;;;;;;24.70;40.60;;;;;;5094742;28;19958;-76
2021/10/17 12:10:11;;;;;;;;;;;25.10;42.50;;;;;;5094596;28;20333;-76
2021/10/17 12:12:40;;;;;;;;;;;25.50;42.30;;;;;;5094710;28;20416;-77
2021/10/17 12:15:07;;;;;;;;;;;25.90;42.00;;;;;;5077574;28;19909;-80
2021/10/17 12:17:35;;;;;;;;;;;26.20;41.70;;;;;;5094261;28;19915;-79
2021/10/17 12:20:02;;;;;;;;;;;26.40;41.40;;;;;;5077639;28;19908;-78
2021/10/17 12:22:28;;;;;;;;;;;26.70;41.20;;;;;;5094448;28;20040;-77
2021/10/17 12:24:56;;;;;;;;;;;26.80;41.00;;;;;;5094380;28;19991;-79
2021/10/17 12:27:57;;;;;;;;;;;26.90;40.90;;;;;;5095180;28;19908;-77
2021/10/17 12:30:32;;;;;;;;;;;27.00;40.90;;;;;;5053198;28;20071;-81
2021/10/17 12:32:57;;;;;;;;;;;27.00;40.80;;;;;;5069083;28;20256;-78
2021/10/17 12:35:33;;;;;;;;;;;27.10;40.90;;;;;;5094412;28;19909;-80
2021/10/17 12:38:10;;;;;;;;;;;27.10;40.80;;;;;;5094362;28;19927;-79
2021/10/17 12:40:56;;;;;;;;;;;27.20;40.90;;;;;;5095040;28;19908;-79
2021/10/17 12:43:33;;;;;;;;;;;27.20;40.90;;;;;;5094782;28;19908;-78
2021/10/17 12:46:18;;;;;;;;;;;27.30;41.00;;;;;;5093993;28;19908;-78
2021/10/17 12:48:46;;;;;;;;;;;27.30;41.00;;;;;;5078922;28;20252;-79
2021/10/17 12:51:30;;;;;;;;;;;27.30;41.30;;;;;;5101261;28;20386;-79
2021/10/17 12:54:04;;;;;;;;;;;27.30;41.30;;;;;;5107468;28;19908;-80
2021/10/17 12:56:32;;;;;;;;;;;27.40;41.40;;;;;;5111755;28;19931;-79
2021/10/17 12:59:07;;;;;;;;;;;27.50;41.60;;;;;;5107461;28;20348;-75
2021/10/17 13:01:32;;;;;;;;;;;27.50;41.40;;;;;;5107900;28;19969;-77
2021/10/17 13:04:13;;;;;;;;;;;27.50;41.40;;;;;;5106438;28;19943;-78
2021/10/17 13:06:48;;;;;;;;;;;27.60;41.50;;;;;;5110056;28;19908;-77
2021/10/17 13:09:14;;;;;;;;;;;27.60;41.60;;;;;;5106937;28;20237;-76
2021/10/17 13:11:41;;;;;;;;;;;27.50;41.50;;;;;;5101637;28;19916;-75
2021/10/17 13:14:08;;;;;;;;;;;27.50;41.60;;;;;;5099244;28;19912;-77
2021/10/17 13:16:35;;;;;;;;;;;27.40;41.60;;;;;;5098621;28;19931;-80
2021/10/17 13:19:03;;;;;;;;;;;27.40;41.60;;;;;;5097992;28;19909;-79
2021/10/17 13:21:34;;;;;;;;;;;27.40;41.70;;;;;;5080254;28;20232;-79
2021/10/17 13:24:02;;;;;;;;;;;27.30;41.80;;;;;;5097998;28;20210;-79
2021/10/17 13:26:27;;;;;;;;;;;27.30;41.90;;;;;;5081514;28;19956;-80
2021/10/17 13:28:58;;;;;;;;;;;27.30;42.00;;;;;;5098066;28;19919;-82
2021/10/17 13:31:24;;;;;;;;;;;27.40;42.40;;;;;;5097849;28;19908;-76
2021/10/17 13:33:49;;;;;;;;;;;27.30;42.40;;;;;;5097633;28;19919;-78
2021/10/17 13:36:15;;;;;;;;;;;27.30;42.90;;;;;;5097605;28;19916;-78
2021/10/17 13:38:43;;;;;;;;;;;27.30;42.40;;;;;;5132068;27;20525;-79
2021/10/17 13:41:11;;;;;;;;;;;27.30;42.60;;;;;;5114874;28;19917;-79
2021/10/17 13:43:39;;;;;;;;;;;27.30;42.70;;;;;;5131039;27;19913;-82
2021/10/17 13:46:04;;;;;;;;;;;27.30;42.80;;;;;;5131200;27;19919;-80
2021/10/17 13:48:30;;;;;;;;;;;27.30;42.90;;;;;;5132033;27;19912;-76
2021/10/17 13:50:55;;;;;;;;;;;27.30;43.00;;;;;;5114345;28;19973;-82
2021/10/17 13:53:23;;;;;;;;;;;27.30;43.10;;;;;;5131598;27;19908;-77
2021/10/17 13:55:49;;;;;;;;;;;27.20;43.00;;;;;;5098099;28;19908;-79
2021/10/17 13:58:14;;;;;;;;;;;27.20;43.20;;;;;;5115563;28;20218;-81
2021/10/17 14:00:40;;;;;;;;;;;27.20;43.30;;;;;;5131819;27;19973;-79
2021/10/17 14:03:05;;;;;;;;;;;27.20;43.40;;;;;;5115524;28;20348;-84
2021/10/17 14:05:34;;;;;;;;;;;27.20;43.40;;;;;;5097651;28;19908;-83
2021/10/17 14:08:02;;;;;;;;;;;27.20;43.20;;;;;;5130739;27;19961;-82
2021/10/17 14:10:28;;;;;;;;;;;27.20;43.20;;;;;;5113983;28;19912;-80
2021/10/17 14:12:53;;;;;;;;;;;27.10;43.10;;;;;;5114327;28;19957;-79
2021/10/17 14:15:19;;;;;;;;;;;27.10;43.00;;;;;;5128219;27;19934;-81
2021/10/17 14:17:44;;;;;;;;;;;27.10;43.10;;;;;;5104284;28;19916;-79
2021/10/17 14:20:12;;;;;;;;;;;27.10;43.20;;;;;;5082026;28;19916;-79